Time;durP1;ratioP1;P1;durP2;ratioP2;P2;SDS_P1;SDS_P2;PMS_P1;PMS_P2;Temp;Humidity;BMP_temperature;BMP_pressure;BME280_temperature;BME280_humidity;BME280_pressure;Samples;Min_cycle;Max_cycle;Signal;HPM_P1;HPM_P2
2023/05/17 00:01:50;;;;;;;33.07;21.90;;;;;;;-143.21;99.20;71697.41;5109070;28;20813;-79
2023/05/17 00:04:17;;;;;;;32.73;20.63;;;;;;;-143.21;99.22;71703.34;5108920;28;20208;-79
2023/05/17 00:06:44;;;;;;;36.83;21.83;;;;;;;-143.21;98.78;71703.34;5108884;28;20268;-79
2023/05/17 00:09:11;;;;;;;33.27;22.17;;;;;;;-143.21;98.89;71713.28;5108769;28;20203;-79
2023/05/17 00:11:37;;;;;;;40.23;22.00;;;;;;;-143.21;98.41;71717.25;5109276;28;20223;-79
2023/05/17 00:14:04;;;;;;;31.03;21.00;;;;;;;-143.21;98.41;71727.16;5109175;28;20237;-79
2023/05/17 00:16:31;;;;;;;30.60;21.03;;;;;;;-143.21;98.64;71733.09;5108636;28;20200;-79
2023/05/17 00:18:59;;;;;;;33.47;21.73;;;;;;;-143.21;98.62;71737.06;5108133;28;20231;-78
2023/05/17 00:21:26;;;;;;;36.43;21.27;;;;;;;-143.21;99.21;71737.06;5109316;28;20196;-78
2023/05/17 00:23:53;;;;;;;30.57;20.33;;;;;;;-143.21;98.97;71788.63;5108568;28;20682;-78
2023/05/17 00:26:20;;;;;;;34.67;20.87;;;;;;;-143.21;99.35;71826.28;5108236;28;20654;-78
2023/05/17 00:28:46;;;;;;;35.60;22.30;;;;;;;-143.21;100.00;71830.25;5107654;28;20690;-79
2023/05/17 00:31:13;;;;;;;37.73;23.57;;;;;;;-143.21;100.00;71830.25;5108335;28;20204;-80
2023/05/17 00:33:40;;;;;;;33.33;22.97;;;;;;;-143.21;100.00;71816.38;5108044;28;20196;-80
2023/05/17 00:36:08;;;;;;;35.03;22.40;;;;;;;-143.21;100.00;71802.50;5107758;28;20265;-80
2023/05/17 00:38:35;;;;;;;31.70;22.17;;;;;;;-143.21;100.00;71792.59;5108137;28;20256;-80
2023/05/17 00:41:02;;;;;;;31.10;22.03;;;;;;;-143.21;100.00;71782.69;5107724;28;20223;-79
2023/05/17 00:43:29;;;;;;;37.07;22.67;;;;;;;-143.21;100.00;71784.66;5107908;28;20253;-80
2023/05/17 00:45:56;;;;;;;29.33;21.67;;;;;;;-143.21;100.00;71782.69;5108593;28;20264;-79
2023/05/17 00:48:24;;;;;;;31.20;20.27;;;;;;;-143.21;100.00;71782.69;5104787;28;20682;-80
2023/05/17 00:50:51;;;;;;;33.83;20.27;;;;;;;-143.21;100.00;71782.69;5107513;28;20257;-80
2023/05/17 00:53:20;;;;;;;30.43;20.53;;;;;;;-143.21;100.00;71790.59;5108069;28;20200;-79
2023/05/17 00:55:47;;;;;;;33.50;21.23;;;;;;;-143.21;100.00;71794.56;5108310;28;20208;-80
2023/05/17 00:58:15;;;;;;;32.47;20.30;;;;;;;-143.21;100.00;71798.53;5108049;28;20204;-80
2023/05/17 01:00:42;;;;;;;34.43;20.07;;;;;;;-143.21;100.00;71814.41;5107186;28;20196;-81
2023/05/17 01:03:09;;;;;;;38.60;19.77;;;;;;;-143.21;100.00;71824.31;5108556;28;20241;-81
2023/05/17 01:05:36;;;;;;;28.67;17.50;;;;;;;-143.21;100.00;71816.38;5108544;28;20200;-80
2023/05/17 01:08:03;;;;;;;21.47;14.27;;;;;;;-143.21;100.00;71814.41;5110181;28;20211;-80
2023/05/17 01:10:41;;;;;;;23.47;15.13;;;;;;;-143.21;100.00;71820.34;5109992;28;20204;-80
2023/05/17 01:13:10;;;;;;;21.63;13.97;;;;;;;-143.21;100.00;71818.38;5109456;28;20203;-80
2023/05/17 01:15:43;;;;;;;22.37;13.30;;;;;;;-143.21;100.00;71814.41;5109477;28;20200;-79
2023/05/17 01:18:17;;;;;;;21.60;11.70;;;;;;;-143.21;99.56;71824.31;5109526;28;20223;-80
2023/05/17 01:20:46;;;;;;;23.07;12.70;;;;;;;-143.21;99.43;71822.34;5109654;28;20214;-80
2023/05/17 01:23:35;;;;;;;24.83;12.70;;;;;;;-143.21;100.00;71824.31;5109225;28;20192;-79
2023/05/17 01:26:10;;;;;;;27.00;12.97;;;;;;;-143.21;100.00;71826.28;5106857;28;20203;-80
2023/05/17 01:28:40;;;;;;;25.67;13.43;;;;;;;-143.21;99.71;71816.38;5108016;28;20665;-80
2023/05/17 01:31:09;;;;;;;25.13;13.80;;;;;;;-143.21;99.50;71820.34;5108656;28;20192;-80
2023/05/17 01:33:36;;;;;;;22.30;13.73;;;;;;;-143.21;99.82;71824.31;5109484;28;20677;-80
2023/05/17 01:36:03;;;;;;;20.80;13.63;;;;;;;-143.21;99.42;71820.34;5109127;28;20264;-80
2023/05/17 01:38:30;;;;;;;18.30;13.10;;;;;;;-143.21;99.58;71822.34;5109339;28;20638;-80
2023/05/17 01:41:01;;;;;;;23.00;13.40;;;;;;;-143.21;99.25;71824.31;5109014;28;20256;-80
2023/05/17 01:43:35;;;;;;;23.27;14.03;;;;;;;-143.21;98.53;71826.28;5106620;28;20192;-79
2023/05/17 01:46:11;;;;;;;27.60;13.10;;;;;;;-143.21;98.39;71879.84;5109117;28;20680;-79
2023/05/17 01:48:44;;;;;;;22.20;13.00;;;;;;;-143.21;99.29;71921.47;5109775;28;20267;-79
2023/05/17 01:51:17;;;;;;;28.80;13.93;;;;;;;-143.21;100.00;71937.34;5109330;28;20196;-80
2023/05/17 01:53:48;;;;;;;29.60;14.87;;;;;;;-143.21;100.00;71937.34;5107673;28;20203;-79
2023/05/17 01:56:19;;;;;;;23.70;15.97;;;;;;;-143.21;100.00;71917.50;5109963;28;20208;-81
2023/05/17 01:58:48;;;;;;;25.53;14.80;;;;;;;-143.21;100.00;71911.56;5109844;28;20261;-80
2023/05/17 02:01:18;;;;;;;26.23;14.47;;;;;;;-143.21;100.00;71909.56;5109146;28;20255;-80
2023/05/17 02:03:48;;;;;;;27.37;14.33;;;;;;;-143.21;100.00;71903.63;5109669;28;20276;-80
2023/05/17 02:06:14;;;;;;;22.33;14.77;;;;;;;-143.21;100.00;71893.72;5109844;28;20249;-81
2023/05/17 02:08:41;;;;;;;21.20;13.77;;;;;;;-143.21;100.00;71885.78;5109739;28;20666;-80
2023/05/17 02:11:08;;;;;;;27.97;15.53;;;;;;;-143.21;100.00;71883.81;5109055;28;20634;-80
2023/05/17 02:13:35;;;;;;;22.27;14.13;;;;;;;-143.21;100.00;71881.81;5109709;28;20203;-80
2023/05/17 02:16:02;;;;;;;25.47;14.73;;;;;;;-143.21;100.00;71869.91;5111063;28;20204;-80
2023/05/17 02:18:31;;;;;;;24.60;14.23;;;;;;;-143.21;100.00;71873.88;5112925;28;20251;-80
2023/05/17 02:20:58;;;;;;;24.47;14.60;;;;;;;-143.21;100.00;71871.91;5112835;28;20239;-80
2023/05/17 02:23:24;;;;;;;24.93;15.70;;;;;;;-143.21;100.00;71863.97;5109918;28;20203;-80
2023/05/17 02:25:51;;;;;;;26.10;14.73;;;;;;;-143.21;100.00;71865.97;5113499;28;20207;-80
2023/05/17 02:28:18;;;;;;;23.73;15.60;;;;;;;-143.21;100.00;71860.00;5113058;28;20671;-80
2023/05/17 02:30:45;;;;;;;21.87;14.93;;;;;;;-143.21;100.00;71867.94;5113416;28;20277;-80
2023/05/17 02:33:12;;;;;;;27.03;16.30;;;;;;;-143.21;100.00;71875.88;5113019;28;20219;-81
2023/05/17 02:35:40;;;;;;;26.80;16.03;;;;;;;-143.21;100.00;71879.84;5113657;27;20207;-81
2023/05/17 02:38:07;;;;;;;25.03;15.17;;;;;;;-143.21;100.00;71873.88;5113843;28;20204;-81
2023/05/17 02:40:33;;;;;;;24.07;15.73;;;;;;;-143.21;100.00;71883.81;5113139;28;20196;-81
2023/05/17 02:43:00;;;;;;;26.13;15.50;;;;;;;-143.21;99.80;71889.75;5113426;28;20226;-80
2023/05/17 02:45:27;;;;;;;26.53;15.03;;;;;;;-143.21;100.00;71903.63;5113341;28;20200;-80
2023/05/17 02:47:54;;;;;;;25.40;15.33;;;;;;;-143.21;100.00;71903.63;5112819;28;20200;-81
2023/05/17 02:50:20;;;;;;;28.23;16.13;;;;;;;-143.21;100.00;71907.59;5111210;28;20570;-81
2023/05/17 02:52:49;;;;;;;26.63;16.00;;;;;;;-143.21;100.00;71917.50;5111677;28;20200;-81
2023/05/17 02:55:16;;;;;;;28.87;18.30;;;;;;;-143.21;100.00;71927.44;5112595;28;20681;-80
2023/05/17 02:57:43;;;;;;;27.03;16.10;;;;;;;-143.21;100.00;71937.34;5113204;28;20208;-81
2023/05/17 03:00:10;;;;;;;23.43;16.37;;;;;;;-143.21;100.00;71943.28;5113248;28;20207;-80
2023/05/17 03:02:37;;;;;;;28.27;16.97;;;;;;;-143.21;100.00;71947.25;5112951;28;20231;-80
2023/05/17 03:05:04;;;;;;;29.10;17.23;;;;;;;-143.21;100.00;71949.25;5112460;28;20199;-80
2023/05/17 03:07:31;;;;;;;30.93;17.00;;;;;;;-143.21;99.76;71943.28;5112951;28;20555;-80
2023/05/17 03:09:59;;;;;;;26.47;17.03;;;;;;;-143.21;99.81;71945.28;5113165;28;20582;-79
2023/05/17 03:12:26;;;;;;;22.37;17.27;;;;;;;-143.21;99.91;71959.16;5112494;28;20607;-80
2023/05/17 03:14:53;;;;;;;24.33;15.80;;;;;;;-143.21;99.52;71998.81;5110048;28;20200;-80
2023/05/17 03:17:20;;;;;;;28.90;17.37;;;;;;;-143.21;99.68;72048.38;5123617;28;20253;-79
2023/05/17 03:19:50;;;;;;;31.30;19.27;;;;;;;-143.21;100.00;72074.16;5125710;28;20211;-79
2023/05/17 03:22:16;;;;;;;33.83;19.93;;;;;;;-143.21;100.00;72062.25;5121781;28;20228;-80
2023/05/17 03:24:43;;;;;;;30.80;20.03;;;;;;;-143.21;100.00;72054.34;5111979;28;20196;-79
2023/05/17 03:27:11;;;;;;;30.10;20.53;;;;;;;-143.21;100.00;72032.53;5112130;28;20203;-80
2023/05/17 03:29:38;;;;;;;27.13;19.33;;;;;;;-143.21;100.00;72022.59;5112210;28;20196;-78
2023/05/17 03:32:06;;;;;;;34.17;19.83;;;;;;;-143.21;100.00;72012.69;5111615;27;20622;-79
2023/05/17 03:34:33;;;;;;;35.40;20.23;;;;;;;-143.21;100.00;72000.78;5110905;28;20203;-79
2023/05/17 03:37:08;;;;;;;32.00;19.30;;;;;;;-143.21;100.00;71998.81;5111057;28;20231;-79
2023/05/17 03:39:36;;;;;;;29.40;19.63;;;;;;;-143.21;100.00;71990.88;5110969;28;20562;-80
2023/05/17 03:42:03;;;;;;;30.87;19.67;;;;;;;-143.21;100.00;71980.97;5110908;28;20224;-79
2023/05/17 03:44:31;;;;;;;33.40;19.10;;;;;;;-143.21;100.00;71977.00;5111346;28;20204;-80
2023/05/17 03:46:58;;;;;;;25.80;19.10;;;;;;;-143.21;100.00;71980.97;5111146;28;20732;-80
2023/05/17 03:49:25;;;;;;;32.57;18.50;;;;;;;-143.21;100.00;71975.00;5111497;28;20620;-81
2023/05/17 03:51:52;;;;;;;35.60;18.13;;;;;;;-143.21;100.00;71975.00;5111564;28;20644;-80
2023/05/17 03:54:21;;;;;;;32.80;19.10;;;;;;;-143.21;100.00;71969.06;5111673;28;20204;-80
2023/05/17 03:56:49;;;;;;;34.00;17.20;;;;;;;-143.21;100.00;71977.00;5111259;28;20570;-80
2023/05/17 03:59:16;;;;;;;40.33;17.27;;;;;;;-143.21;99.92;71977.00;5111539;28;20291;-80
2023/05/17 04:01:44;;;;;;;33.77;17.93;;;;;;;-143.21;99.82;71980.97;5109079;28;20223;-80
2023/05/17 04:04:11;;;;;;;35.40;18.47;;;;;;;-143.21;100.00;71984.94;5109772;28;20204;-80
2023/05/17 04:06:39;;;;;;;29.43;17.17;;;;;;;-143.21;99.78;71978.97;5110366;28;20281;-80
2023/05/17 04:09:08;;;;;;;29.83;17.37;;;;;;;-143.21;99.53;71977.00;5109337;28;20295;-79
2023/05/17 04:11:35;;;;;;;33.70;18.33;;;;;;;-143.21;99.79;71971.06;5110742;28;20196;-81
2023/05/17 04:14:02;;;;;;;36.17;18.63;;;;;;;-143.21;100.00;71969.06;5111244;28;20199;-81
2023/05/17 04:16:28;;;;;;;33.47;19.07;;;;;;;-143.21;99.86;71967.09;5111269;28;20199;-81
2023/05/17 04:18:57;;;;;;;34.53;18.80;;;;;;;-143.21;100.00;71957.16;5107270;28;20228;-81
2023/05/17 04:21:23;;;;;;;42.00;19.07;;;;;;;-143.21;99.40;71943.28;5107790;28;20199;-81
2023/05/17 04:23:50;;;;;;;28.37;19.00;;;;;;;-143.21;99.37;71937.34;5110339;28;20234;-81
2023/05/17 04:26:17;;;;;;;30.80;18.93;;;;;;;-143.21;99.24;71937.34;5110520;28;21596;-81
2023/05/17 04:28:44;;;;;;;38.57;20.30;;;;;;;-143.21;99.45;71939.31;5110505;28;20208;-81
2023/05/17 04:31:13;;;;;;;31.90;20.57;;;;;;;-143.21;99.69;71935.34;5110685;28;20280;-81
2023/05/17 04:33:40;;;;;;;29.83;18.97;;;;;;;-143.21;99.63;71947.25;5110641;28;20192;-81
2023/05/17 04:36:08;;;;;;;37.47;18.80;;;;;;;-143.21;100.00;71939.31;5110272;28;20804;-81
2023/05/17 04:38:35;;;;;;;34.13;18.87;;;;;;;-143.21;99.37;71955.19;5110111;28;20265;-81
2023/05/17 04:41:03;;;;;;;29.90;18.43;;;;;;;-143.21;99.21;71967.09;5110218;28;20199;-80
2023/05/17 04:43:31;;;;;;;36.63;22.17;;;;;;;-143.21;100.00;71984.94;5110255;28;20216;-82
2023/05/17 04:45:58;;;;;;;50.37;23.00;;;;;;;-143.21;100.00;71978.97;5110135;28;20693;-82
2023/05/17 04:48:25;;;;;;;34.30;21.73;;;;;;;-143.21;100.00;71957.16;5110580;28;20207;-81
2023/05/17 04:50:52;;;;;;;31.00;20.57;;;;;;;-143.21;100.00;71941.31;5106814;28;20192;-81
2023/05/17 04:53:20;;;;;;;34.77;21.43;;;;;;;-143.21;100.00;71927.44;5109825;28;20274;-82
2023/05/17 04:55:48;;;;;;;39.30;21.43;;;;;;;-143.21;100.00;71911.56;5109838;28;20835;-83
2023/05/17 04:58:14;;;;;;;42.80;20.50;;;;;;;-143.21;100.00;71895.69;5110530;28;20677;-82
2023/05/17 05:00:41;;;;;;;35.10;21.30;;;;;;;-143.21;99.35;71885.78;5109385;28;20264;-82
2023/05/17 05:03:09;;;;;;;30.80;20.60;;;;;;;-143.21;98.51;71873.88;5109158;28;20718;-82
2023/05/17 05:05:35;;;;;;;37.87;21.97;;;;;;;-143.21;97.92;71867.94;5109030;28;20253;-83
2023/05/17 05:08:02;;;;;;;36.67;21.97;;;;;;;-143.21;96.58;71860.00;5108050;28;20207;-82
2023/05/17 05:10:30;;;;;;;34.20;20.60;;;;;;;-143.21;95.40;71848.09;5109505;28;20641;-81
2023/05/17 05:12:58;;;;;;;34.33;20.30;;;;;;;-143.21;95.14;71852.06;5110206;28;20204;-82
2023/05/17 05:15:24;;;;;;;39.63;20.30;;;;;;;-143.21;94.86;71842.16;5109993;28;20231;-82
2023/05/17 05:17:51;;;;;;;34.60;20.30;;;;;;;-143.21;94.60;71838.19;5106123;28;20227;-82
2023/05/17 05:20:18;;;;;;;36.80;21.47;;;;;;;-143.21;93.92;71826.28;5109476;28;20299;-82
2023/05/17 05:22:45;;;;;;;34.67;20.40;;;;;;;-143.21;93.91;71820.34;5107964;28;20219;-82
2023/05/17 05:25:12;;;;;;;34.83;18.87;;;;;;;-143.21;93.48;71816.38;5109291;28;20196;-81
2023/05/17 05:27:41;;;;;;;32.10;19.40;;;;;;;-143.21;93.27;71796.56;5109946;28;20204;-82
2023/05/17 05:30:08;;;;;;;36.80;19.23;;;;;;;-143.21;91.98;71788.63;5110165;28;20284;-82
2023/05/17 05:32:37;;;;;;;31.30;18.77;;;;;;;-143.21;90.60;71776.72;5114548;28;20203;-84
2023/05/17 05:35:04;;;;;;;32.90;19.60;;;;;;;-143.21;90.44;71760.88;5113524;28;20267;-83
2023/05/17 05:37:31;;;;;;;34.70;18.37;;;;;;;-143.21;90.27;71752.94;5110146;28;20192;-83
2023/05/17 05:39:58;;;;;;;33.00;19.37;;;;;;;-143.21;89.93;71743.00;5110143;28;20200;-82
2023/05/17 05:42:26;;;;;;;34.37;17.83;;;;;;;-143.21;89.95;71737.06;5109911;28;20307;-81
2023/05/17 05:44:54;;;;;;;33.83;19.03;;;;;;;-143.21;89.37;71731.13;5109841;28;20695;-82
2023/05/17 05:47:21;;;;;;;28.97;18.37;;;;;;;-143.21;87.93;71723.19;5110004;28;20192;-83
2023/05/17 05:49:48;;;;;;;31.47;18.40;;;;;;;-143.21;87.77;71721.22;5110021;28;20216;-83
2023/05/17 05:52:15;;;;;;;30.10;17.77;;;;;;;-143.21;88.53;71723.19;5113437;28;20268;-83
2023/05/17 05:54:42;;;;;;;33.40;19.20;;;;;;;-143.21;89.12;71758.88;5114232;28;20200;-84
2023/05/17 05:57:08;;;;;;;37.60;20.07;;;;;;;-143.21;89.92;71780.69;5113929;28;20257;-84
2023/05/17 05:59:35;;;;;;;34.97;20.03;;;;;;;-143.21;91.48;71768.78;5114065;28;20199;-84
2023/05/17 06:02:04;;;;;;;37.27;19.00;;;;;;;-143.21;91.40;71754.91;5113751;28;20192;-83
2023/05/17 06:04:31;;;;;;;31.07;18.23;;;;;;;-143.21;90.86;71741.03;5114350;28;20219;-84
2023/05/17 06:06:57;;;;;;;31.40;17.47;;;;;;;-143.21;90.05;71721.22;5113370;28;20207;-83
2023/05/17 06:09:24;;;;;;;27.00;17.27;;;;;;;-143.21;89.06;71701.38;5113798;28;20200;-84
2023/05/17 06:11:53;;;;;;;25.90;15.07;;;;;;;-143.21;88.04;71689.47;5113563;28;20204;-84
2023/05/17 06:14:20;;;;;;;31.50;16.40;;;;;;;-143.21;86.74;71671.63;5113345;28;20662;-83
2023/05/17 06:16:47;;;;;;;27.63;15.27;;;;;;;-143.21;85.55;71655.78;5113664;28;20204;-83
2023/05/17 06:19:15;;;;;;;29.90;15.73;;;;;;;-143.21;85.04;71637.94;5113162;28;20254;-84
2023/05/17 06:21:42;;;;;;;26.47;14.97;;;;;;;-143.21;84.22;71628.00;5113118;28;20196;-84
2023/05/17 06:24:09;;;;;;;26.87;15.33;;;;;;;-143.21;83.54;71616.13;5113040;28;20234;-84
2023/05/17 06:26:36;;;;;;;26.23;14.83;;;;;;;-143.21;82.13;71604.22;5112093;28;20594;-85
2023/05/17 06:29:03;;;;;;;28.70;15.30;;;;;;;-143.21;81.72;71598.28;5112893;28;20204;-82
2023/05/17 06:31:30;;;;;;;28.83;15.67;;;;;;;-143.21;82.03;71590.34;5112669;28;20600;-78
2023/05/17 06:33:57;;;;;;;32.37;15.33;;;;;;;-143.21;82.67;71588.38;5112233;28;20537;-79
2023/05/17 06:36:25;;;;;;;25.73;14.03;;;;;;;-143.21;81.92;71578.44;5109242;28;20696;-79
2023/05/17 06:38:52;;;;;;;26.27;14.50;;;;;;;-143.21;81.53;71576.47;5112180;28;20200;-79
2023/05/17 06:41:18;;;;;;;24.07;12.97;;;;;;;-143.21;79.79;71570.53;5112100;28;20208;-78
2023/05/17 06:43:45;;;;;;;24.03;13.23;;;;;;;-143.21;79.98;71550.69;5112084;28;20576;-79
2023/05/17 06:46:12;;;;;;;24.67;12.60;;;;;;;-143.21;80.25;71538.78;5111826;28;20644;-78
2023/05/17 06:48:39;;;;;;;20.93;11.90;;;;;;;-143.21;79.54;71532.84;5111687;27;20201;-79
2023/05/17 06:51:06;;;;;;;18.97;11.40;;;;;;;-143.21;78.90;71518.97;5112127;28;20207;-78
2023/05/17 06:53:34;;;;;;;22.73;12.03;;;;;;;-143.21;79.42;71515.00;5112576;28;20204;-79
2023/05/17 06:56:01;;;;;;;20.83;11.73;;;;;;;-143.21;79.21;71516.97;5113458;28;20204;-80
2023/05/17 06:58:27;;;;;;;21.80;10.20;;;;;;;-143.21;78.85;71507.06;5113631;28;20204;-79
2023/05/17 07:00:54;;;;;;;20.27;10.47;;;;;;;-143.21;78.77;71491.22;5112632;28;20204;-80
2023/05/17 07:03:21;;;;;;;21.23;11.07;;;;;;;-143.21;78.45;71485.25;5112678;28;20219;-81
2023/05/17 07:05:48;;;;;;;18.10;9.83;;;;;;;-143.21;78.23;71487.25;5112944;28;20295;-80
2023/05/17 07:08:15;;;;;;;15.60;10.20;;;;;;;-143.21;78.11;71485.25;5112748;28;20280;-80
2023/05/17 07:10:43;;;;;;;18.33;10.53;;;;;;;-143.21;79.24;71507.06;5112980;28;20651;-82
2023/05/17 07:13:10;;;;;;;21.10;11.43;;;;;;;-143.21;80.23;71558.63;5113184;28;20284;-81
2023/05/17 07:15:37;;;;;;;21.67;11.83;;;;;;;-143.21;83.66;71598.28;5113059;28;20202;-81
2023/05/17 07:18:04;;;;;;;21.30;11.90;;;;;;;-143.21;83.27;71586.38;5112588;28;20232;-81
2023/05/17 07:20:31;;;;;;;21.50;11.27;;;;;;;-143.21;82.89;71566.56;5112281;28;20677;-80
2023/05/17 07:22:58;;;;;;;23.93;11.97;;;;;;;-143.21;81.68;71534.81;5112329;28;20227;-81
2023/05/17 07:25:27;;;;;;;23.03;11.70;;;;;;;-143.21;80.01;71518.97;5112671;27;20261;-79
2023/05/17 07:27:55;;;;;;;19.53;10.90;;;;;;;-143.21;78.61;71495.19;5112618;28;20282;-81
2023/05/17 07:30:22;;;;;;;25.83;11.07;;;;;;;-143.21;78.34;71479.31;5108368;28;20589;-81
2023/05/17 07:32:49;;;;;;;21.10;10.90;;;;;;;-143.21;78.28;71469.41;5111520;28;20204;-81
2023/05/17 07:35:16;;;;;;;20.83;11.13;;;;;;;-143.21;78.78;71453.53;5111943;28;20219;-82
2023/05/17 07:37:43;;;;;;;18.40;10.27;;;;;;;-143.21;77.99;71443.63;5111560;28;20200;-81
2023/05/17 07:40:10;;;;;;;20.05;10.80;;;;;;;-143.21;76.74;71439.66;5111134;28;20207;-81
2023/05/17 07:42:37;;;;;;;21.20;10.87;;;;;;;-143.21;76.35;71431.72;5110947;28;20241;-81
2023/05/17 07:45:14;;;;;;;21.17;10.85;;;;;;;-143.21;75.24;71423.78;5117481;28;20215;-82
2023/05/17 07:47:41;;;;;;;23.48;10.35;;;;;;;-143.21;75.12;71419.84;5114018;28;20253;-83
2023/05/17 07:50:11;;;;;;;20.40;10.55;;;;;;;-143.21;75.25;71411.91;5114464;28;20257;-81
2023/05/17 07:52:38;;;;;;;18.10;10.00;;;;;;;-143.21;75.53;71392.06;5112601;28;20622;-88
2023/05/17 07:55:05;;;;;;;22.50;10.20;;;;;;;-143.21;75.04;71384.16;5113305;28;20586;-82
2023/05/17 07:57:32;;;;;;;21.75;10.77;;;;;;;-143.21;74.46;71380.19;5112161;28;20283;-84
2023/05/17 08:00:02;;;;;;;23.38;10.57;;;;;;;-143.21;74.60;71372.25;5112439;28;20195;-85
2023/05/17 08:02:30;;;;;;;18.60;11.48;;;;;;;-143.21;74.26;71366.31;5112941;28;20192;-85
2023/05/17 08:04:57;;;;;;;20.90;11.50;;;;;;;-143.21;74.02;71350.44;5113306;28;20228;-86
2023/05/17 08:07:24;;;;;;;19.63;11.05;;;;;;;-143.21;73.72;71346.47;5112575;28;20211;-86
2023/05/17 08:09:51;;;;;;;22.00;11.43;;;;;;;-143.21;73.60;71340.53;5112557;28;20207;-85
2023/05/17 08:12:18;;;;;;;23.63;12.68;;;;;;;-143.21;74.45;71334.59;5113341;28;20203;-86
2023/05/17 08:17:50;;;;;;;;;;;;;;;;;;;;;
2023/05/17 08:20:45;;;;;;;;;;;;;;;;;;;;;
2023/05/17 08:23:12;;;;;;;23.92;12.38;;;;;;;-143.21;73.57;71277.09;5124786;27;20224;-86
2023/05/17 08:25:42;;;;;;;27.15;11.63;;;;;;;-143.21;72.28;71267.19;5131444;28;20218;-88
2023/05/17 08:28:12;;;;;;;20.45;11.20;;;;;;;-143.21;72.02;71263.22;5133519;28;20220;-86
2023/05/17 08:31:04;;;;;;;20.92;10.68;;;;;;;-143.21;72.15;71267.19;5135497;28;20194;-88
2023/05/17 08:33:57;;;;;;;20.77;10.27;;;;;;;-143.21;71.07;71251.31;5135949;28;20228;-84
2023/05/17 08:36:35;;;;;;;26.63;12.32;;;;;;;-143.21;71.91;71255.28;5131950;28;20200;-85
2023/05/17 08:39:02;;;;;;;19.17;11.55;;;;;;;-143.21;71.77;71259.25;5131935;28;20199;-83
2023/05/17 08:41:30;;;;;;;27.40;12.85;;;;;;;-143.21;71.56;71261.22;5130391;28;20199;-84
2023/05/17 08:43:58;;;;;;;24.08;12.05;;;;;;;-143.21;71.73;71257.25;5128994;28;20218;-83
2023/05/17 08:46:32;;;;;;;21.92;12.52;;;;;;;-143.21;71.65;71249.34;5129427;28;20197;-86
2023/05/17 08:49:00;;;;;;;24.20;11.50;;;;;;;-143.21;71.87;71245.38;5127771;28;20256;-86
2023/05/17 08:51:29;;;;;;;27.52;12.32;;;;;;;-143.21;70.49;71237.44;5121729;28;20207;-87
2023/05/17 08:53:57;;;;;;;24.10;12.02;;;;;;;-143.21;71.55;71257.25;5118263;28;20199;-85
2023/05/17 08:56:31;;;;;;;23.17;12.15;;;;;;;-143.21;71.69;71253.28;5114882;28;20199;-87
2023/05/17 08:58:59;;;;;;;27.95;11.98;;;;;;;-143.21;71.50;71257.25;5128624;28;20188;-90
2023/05/17 09:01:27;;;;;;;21.00;11.82;;;;;;;-143.21;71.89;71251.31;5130337;28;20195;-87
2023/05/17 09:03:54;;;;;;;19.55;10.85;;;;;;;-143.21;71.58;71239.41;5119651;28;20220;-89
2023/05/17 09:06:22;;;;;;;24.38;11.13;;;;;;;-143.21;70.81;71239.41;5116339;28;20206;-89
2023/05/17 09:08:53;;;;;;;17.50;10.75;;;;;;;-143.21;71.32;71231.50;5116385;28;20629;-89
2023/05/17 09:11:26;;;;;;;23.23;10.77;;;;;;;-143.21;70.97;71225.53;5116196;28;20203;-88
2023/05/17 09:13:54;;;;;;;23.80;10.32;;;;;;;-143.21;69.79;71217.59;5116501;28;20199;-89
2023/05/17 09:16:25;;;;;;;19.85;9.30;;;;;;;-143.21;69.68;71207.69;5116939;28;20622;-88
2023/05/17 09:18:55;;;;;;;21.15;10.23;;;;;;;-143.21;69.05;71199.78;5116172;28;20235;-88
2023/05/17 09:21:22;;;;;;;24.63;11.27;;;;;;;-143.21;69.70;71199.78;5114795;28;20282;-89
2023/05/17 09:23:51;;;;;;;20.83;11.63;;;;;;;-143.21;69.60;71185.88;5116168;28;20706;-89
2023/05/17 09:26:19;;;;;;;21.52;11.35;;;;;;;-143.21;69.54;71170.03;5120757;28;20275;-89
2023/05/17 09:28:47;;;;;;;20.08;11.60;;;;;;;-143.21;68.92;71174.00;5121138;28;20188;-89
2023/05/17 09:31:16;;;;;;;23.70;11.45;;;;;;;-143.21;69.43;71175.97;5120426;28;20198;-88
2023/05/17 09:33:44;;;;;;;28.23;13.05;;;;;;;-143.21;69.66;71181.94;5117164;28;20571;-87
2023/05/17 09:36:17;;;;;;;26.33;12.73;;;;;;;-143.21;69.81;71166.06;5118620;28;20196;-86
2023/05/17 09:38:44;;;;;;;24.95;11.05;;;;;;;-143.21;69.36;71154.16;5116486;28;20223;-83
2023/05/17 09:41:12;;;;;;;21.02;10.40;;;;;;;-143.21;68.03;71136.31;5101562;28;20253;-82
2023/05/17 09:43:42;;;;;;;28.00;11.38;;;;;;;-143.21;69.02;71142.28;5116125;27;20227;-83
2023/05/17 09:46:09;;;;;;;26.67;10.57;;;;;;;-143.21;68.86;71132.38;5115471;28;20195;-83
2023/05/17 09:48:38;;;;;;;23.98;11.05;;;;;;;-143.21;68.51;71128.41;5115661;28;20614;-83
2023/05/17 09:51:06;;;;;;;22.50;10.82;;;;;;;-143.21;68.35;71134.34;5116772;28;20214;-84
2023/05/17 09:53:38;;;;;;;19.13;10.80;;;;;;;-143.21;68.45;71132.38;5115488;28;20196;-83
2023/05/17 09:56:06;;;;;;;22.52;10.07;;;;;;;-143.21;68.11;71122.44;5116396;28;20275;-82
2023/05/17 09:58:37;;;;;;;22.80;11.38;;;;;;;-143.21;68.30;71136.31;5116801;28;20192;-83
2023/05/17 10:01:08;;;;;;;26.75;10.70;;;;;;;-143.21;68.06;71136.31;5116041;28;20194;-81
2023/05/17 10:07:05;;;;;;;20.02;9.95;;;;;;;-143.21;67.45;71146.25;5114001;28;20214;-83
2023/05/17 10:09:37;;;;;;;22.70;10.07;;;;;;;-143.21;68.05;71152.19;5115327;28;21009;-81
2023/05/17 10:12:06;;;;;;;24.10;9.98;;;;;;;-143.21;68.10;71152.19;5115693;28;20187;-84
2023/05/17 10:14:36;;;;;;;22.80;9.88;;;;;;;-143.21;67.32;71160.13;5115486;28;20210;-83
2023/05/17 10:17:04;;;;;;;21.45;8.98;;;;;;;-143.21;67.66;71174.00;5115767;28;20233;-83
2023/05/17 10:19:31;;;;;;;25.33;9.10;;;;;;;-143.21;67.55;71170.03;5114677;28;20232;-81
2023/05/17 10:21:59;;;;;;;23.38;9.10;;;;;;;-143.21;67.37;71170.03;5114481;28;20214;-82
2023/05/17 10:24:31;;;;;;;17.90;8.43;;;;;;;-143.21;67.59;71174.00;5114641;28;20650;-83
2023/05/17 10:26:59;;;;;;;18.38;9.48;;;;;;;-143.21;68.05;71168.06;5114627;28;20254;-81
2023/05/17 10:29:26;;;;;;;19.45;8.32;;;;;;;-143.21;67.70;71162.09;5114714;28;20184;-82
2023/05/17 10:31:56;;;;;;;16.65;8.15;;;;;;;-143.21;67.66;71172.00;5114540;28;20229;-81
2023/05/17 10:34:25;;;;;;;19.65;8.55;;;;;;;-143.21;67.66;71177.97;5114187;28;20196;-82
2023/05/17 10:36:58;;;;;;;24.25;8.38;;;;;;;-143.21;67.93;71172.00;5113861;28;20585;-83
2023/05/17 10:39:26;;;;;;;29.42;8.93;;;;;;;-143.21;67.72;71160.13;5114596;28;20502;-82
2023/05/17 10:41:57;;;;;;;19.33;8.80;;;;;;;-143.21;67.97;71162.09;5114592;28;20223;-81
2023/05/17 10:44:41;;;;;;;16.40;8.50;;;;;;;-143.21;67.90;71164.09;5114396;28;20208;-82
2023/05/17 10:47:40;;;;;;;21.40;8.57;;;;;;;-143.21;67.76;71144.25;5112841;28;20196;-83
2023/05/17 10:50:13;;;;;;;20.60;8.15;;;;;;;-143.21;67.83;71146.25;5114535;28;20192;-83
2023/05/17 10:52:47;;;;;;;21.67;8.27;;;;;;;-143.21;67.69;71148.22;5114450;28;20249;-84
2023/05/17 10:55:19;;;;;;;18.23;8.10;;;;;;;-143.21;68.01;71140.28;5113826;28;20666;-83
2023/05/17 10:58:14;;;;;;;17.08;8.30;;;;;;;-143.21;68.48;71142.28;5114279;28;20210;-88
2023/05/17 11:00:53;;;;;;;23.35;8.63;;;;;;;-143.21;68.66;71136.31;5114854;28;20184;-88
2023/05/17 11:03:33;;;;;;;26.17;8.85;;;;;;;-143.21;69.22;71136.31;5116005;28;20235;-86
2023/05/17 11:07:00;;;;;;;17.52;8.35;;;;;;;-143.21;69.72;71134.34;5114840;27;20740;-87
2023/05/17 11:10:05;;;;;;;;;;;;;;;;;;;;;
2023/05/17 11:12:35;;;;;;;18.70;8.65;;;;;;;-143.21;68.66;71126.41;5114600;28;20224;-87
2023/05/17 11:15:13;;;;;;;17.08;8.40;;;;;;;-143.21;68.13;71124.44;5114723;28;20216;-88
2023/05/17 11:17:55;;;;;;;18.20;8.10;;;;;;;-143.21;67.61;71134.34;5114849;28;20228;-88
2023/05/17 11:20:49;;;;;;;;;;;;;;;;;;;;;